Time;durP1;ratioP1;P1;durP2;ratioP2;P2;SDS_P1;SDS_P2;PMS_P1;PMS_P2;Temp;Humidity;BMP_temperature;BMP_pressure;BME280_temperature;BME280_humidity;BME280_pressure;Samples;Min_cycle;Max_cycle;Signal;HPM_P1;HPM_P2
2022/08/16 00:01:30;;;;;;;13.10;6.07;;;;;;;21.94;63.42;100201.22;5110849;28;20089;-56
2022/08/16 00:03:58;;;;;;;16.38;6.63;;;;;;;21.92;62.67;100198.81;5110105;28;20089;-56
2022/08/16 00:06:25;;;;;;;15.93;6.00;;;;;;;21.98;62.71;100200.53;5110757;28;20066;-57
2022/08/16 00:08:51;;;;;;;14.10;6.20;;;;;;;21.98;62.48;100199.72;5109577;28;20036;-55
2022/08/16 00:11:19;;;;;;;14.27;6.55;;;;;;;22.02;62.46;100203.56;5110884;28;20044;-56
2022/08/16 00:13:48;;;;;;;17.25;6.85;;;;;;;22.02;62.13;100203.56;5109333;28;20044;-55
2022/08/16 00:16:16;;;;;;;16.23;6.93;;;;;;;22.08;62.18;100207.16;5110466;28;20047;-56
2022/08/16 00:18:42;;;;;;;18.45;6.85;;;;;;;22.03;62.58;100199.81;5110411;28;20430;-57
2022/08/16 00:21:09;;;;;;;14.30;6.03;;;;;;;22.01;62.38;100208.16;5109033;28;20048;-55
2022/08/16 00:23:36;;;;;;;13.70;6.90;;;;;;;22.03;62.97;100211.41;4999120;28;20072;-56
2022/08/16 00:26:02;;;;;;;12.73;6.38;;;;;;;22.01;62.87;100215.41;5110405;28;20035;-55
2022/08/16 00:28:29;;;;;;;15.02;6.10;;;;;;;21.98;63.04;100216.72;5110378;28;20074;-56
2022/08/16 00:30:56;;;;;;;16.35;6.70;;;;;;;22.01;62.86;100223.50;5108520;28;20079;-57
2022/08/16 00:33:23;;;;;;;16.48;6.15;;;;;;;22.07;61.97;100222.56;5109175;28;20616;-56
2022/08/16 00:35:49;;;;;;;13.70;6.28;;;;;;;22.00;62.57;100230.78;5110096;28;20447;-55
2022/08/16 00:38:17;;;;;;;15.30;6.18;;;;;;;22.01;62.84;100228.91;5109836;28;20047;-55
2022/08/16 00:40:47;;;;;;;15.70;6.70;;;;;;;21.99;62.85;100226.47;5110164;28;20052;-55
2022/08/16 00:43:20;;;;;;;14.65;6.90;;;;;;;22.04;63.17;100221.13;5110026;28;20485;-57
2022/08/16 00:46:06;;;;;;;12.80;6.55;;;;;;;22.01;62.84;100226.22;5109851;28;20040;-57
2022/08/16 00:48:33;;;;;;;17.70;7.28;;;;;;;21.88;62.86;100227.31;5107978;28;20036;-57
2022/08/16 00:51:01;;;;;;;16.17;6.72;;;;;;;22.07;62.15;100221.75;5096218;28;20070;-57
2022/08/16 00:53:28;;;;;;;17.48;6.90;;;;;;;21.92;62.76;100222.25;5095231;28;20048;-57
2022/08/16 00:55:59;;;;;;;16.77;6.55;;;;;;;21.95;62.77;100224.50;5096093;28;20132;-56
2022/08/16 00:58:29;;;;;;;13.45;6.78;;;;;;;21.92;63.38;100219.56;5096238;28;20048;-57
2022/08/16 01:00:57;;;;;;;16.08;7.00;;;;;;;21.97;62.53;100223.16;5095553;28;20048;-57
2022/08/16 01:03:26;;;;;;;17.38;7.40;;;;;;;21.99;62.56;100217.53;5096130;28;20135;-57
2022/08/16 01:05:54;;;;;;;16.17;7.13;;;;;;;21.91;62.77;100224.16;5096241;28;20543;-57
2022/08/16 01:08:23;;;;;;;15.48;7.38;;;;;;;21.86;63.51;100221.34;5096136;28;20127;-57
2022/08/16 01:10:51;;;;;;;17.63;6.82;;;;;;;21.83;63.55;100229.94;5095869;28;20043;-57
2022/08/16 01:13:23;;;;;;;13.60;7.07;;;;;;;21.82;64.06;100222.91;5095936;28;20546;-57
2022/08/16 01:16:04;;;;;;;13.85;6.63;;;;;;;21.77;63.51;100229.00;5094832;28;20094;-57
2022/08/16 01:18:38;;;;;;;13.90;6.93;;;;;;;21.77;63.17;100226.31;5095737;28;20453;-57
2022/08/16 01:21:46;;;;;;;15.52;6.78;;;;;;;21.74;63.61;100223.28;5095563;28;20064;-57
2022/08/16 01:26:59;;;;;;;13.73;6.22;;;;;;;21.71;64.04;100229.97;5111146;27;20387;-58
2022/08/16 01:29:34;;;;;;;12.70;6.20;;;;;;;21.69;63.83;100234.81;5111403;28;20048;-55
2022/08/16 01:32:02;;;;;;;14.32;6.57;;;;;;;21.69;63.93;100225.91;5111148;28;20135;-55
2022/08/16 01:34:30;;;;;;;12.38;6.00;;;;;;;21.54;64.72;100226.38;5110657;28;20452;-55
2022/08/16 01:37:01;;;;;;;12.07;6.35;;;;;;;21.57;64.94;100226.72;5109871;28;20040;-55
2022/08/16 01:39:29;;;;;;;14.93;6.70;;;;;;;21.57;64.92;100224.03;5109635;28;20042;-55
2022/08/16 01:41:56;;;;;;;14.63;6.60;;;;;;;21.44;65.54;100225.09;5110905;28;20117;-56
2022/08/16 01:44:23;;;;;;;16.58;6.68;;;;;;;21.39;65.95;100225.00;5111070;28;20051;-56
2022/08/16 01:46:52;;;;;;;14.70;7.03;;;;;;;21.20;66.53;100215.41;5110943;28;20110;-56
2022/08/16 01:49:25;;;;;;;17.75;7.40;;;;;;;21.28;66.16;100223.97;5110952;28;20079;-55
2022/08/16 01:51:58;;;;;;;16.08;7.03;;;;;;;21.21;66.76;100220.59;5111043;28;20043;-55
2022/08/16 01:54:37;;;;;;;17.80;7.32;;;;;;;21.13;66.81;100220.13;5110612;28;20044;-55
2022/08/16 01:57:05;;;;;;;16.33;7.35;;;;;;;21.16;66.83;100216.97;5110608;28;20481;-55
2022/08/16 01:59:33;;;;;;;13.18;7.75;;;;;;;21.05;67.53;100214.03;5109347;28;20046;-56
2022/08/16 02:02:01;;;;;;;16.67;7.60;;;;;;;20.99;67.33;100220.38;5110586;28;20048;-55
2022/08/16 02:04:31;;;;;;;17.05;7.70;;;;;;;20.88;67.98;100224.72;5109834;28;20089;-56
2022/08/16 02:07:04;;;;;;;13.48;7.07;;;;;;;20.94;67.48;100225.66;5110631;28;20054;-55
2022/08/16 02:09:30;;;;;;;16.80;7.28;;;;;;;20.87;67.81;100224.94;5110383;28;20070;-55
2022/08/16 02:11:58;;;;;;;16.92;7.25;;;;;;;20.83;68.15;100223.75;5110665;28;20052;-56
2022/08/16 02:14:28;;;;;;;15.07;8.23;;;;;;;20.68;68.65;100226.91;5110558;28;20082;-57
2022/08/16 02:17:00;;;;;;;15.75;7.72;;;;;;;20.65;68.76;100225.53;5110151;28;20437;-56
2022/08/16 02:19:30;;;;;;;16.95;7.63;;;;;;;20.55;68.97;100225.22;5110418;28;20043;-56
2022/08/16 02:21:58;;;;;;;13.40;8.02;;;;;;;20.53;69.27;100224.66;5109989;28;20039;-57
2022/08/16 02:24:26;;;;;;;16.90;7.32;;;;;;;20.69;68.72;100225.88;4995537;28;20040;-57
2022/08/16 02:26:52;;;;;;;15.27;7.43;;;;;;;20.66;68.87;100221.75;5110070;28;20508;-56
2022/08/16 02:29:19;;;;;;;16.05;7.82;;;;;;;20.61;69.29;100220.81;5110214;28;20139;-56
2022/08/16 02:31:48;;;;;;;15.63;7.57;;;;;;;20.57;69.15;100223.13;5109172;28;20044;-56
2022/08/16 02:34:18;;;;;;;17.13;7.78;;;;;;;20.50;69.39;100214.31;5110542;28;20466;-56
2022/08/16 02:36:45;;;;;;;15.95;7.63;;;;;;;20.45;69.61;100209.66;5104807;28;20048;-56
2022/08/16 02:39:15;;;;;;;14.63;7.10;;;;;;;20.38;69.99;100211.63;5096506;28;20052;-57
2022/08/16 02:41:45;;;;;;;14.95;7.32;;;;;;;20.28;70.22;100216.75;5096264;28;20048;-56
2022/08/16 02:44:13;;;;;;;18.25;7.28;;;;;;;20.29;70.07;100215.72;5095249;28;20068;-56
2022/08/16 02:46:44;;;;;;;18.27;7.95;;;;;;;20.25;70.41;100214.53;5094790;28;20547;-56
2022/08/16 02:49:12;;;;;;;19.13;8.40;;;;;;;20.14;70.43;100213.47;5096250;28;20052;-56
2022/08/16 02:51:41;;;;;;;15.20;7.68;;;;;;;20.17;70.62;100217.56;5095820;28;20047;-56
2022/08/16 02:54:09;;;;;;;15.05;7.93;;;;;;;20.13;70.63;100219.88;5096261;28;20074;-56
2022/08/16 02:56:36;;;;;;;15.13;7.03;;;;;;;20.16;70.95;100222.13;5095820;28;20513;-56
2022/08/16 02:59:03;;;;;;;15.45;7.35;;;;;;;20.10;70.85;100215.78;5095982;28;20048;-56
2022/08/16 03:01:32;;;;;;;18.70;7.40;;;;;;;20.11;71.16;100220.09;5094381;28;20036;-56
2022/08/16 03:04:05;;;;;;;14.30;7.28;;;;;;;19.99;71.52;100221.13;5095215;28;20507;-56
2022/08/16 03:06:32;;;;;;;16.08;7.20;;;;;;;19.94;71.57;100213.75;5095698;28;20064;-56
2022/08/16 03:09:04;;;;;;;17.27;7.47;;;;;;;19.98;71.62;100220.31;5095903;28;20055;-56
2022/08/16 03:11:35;;;;;;;15.05;7.60;;;;;;;19.96;71.51;100216.22;5095800;28;20051;-56
2022/08/16 03:14:02;;;;;;;14.35;7.55;;;;;;;19.92;71.58;100219.34;5095669;28;20042;-56
2022/08/16 03:16:29;;;;;;;15.15;6.80;;;;;;;19.94;71.70;100217.25;5094724;28;20428;-57
2022/08/16 03:18:56;;;;;;;12.13;6.55;;;;;;;19.94;71.43;100217.25;5095440;28;20131;-56
2022/08/16 03:21:24;;;;;;;13.18;6.68;;;;;;;19.99;71.70;100221.13;5095263;28;20043;-56
2022/08/16 03:23:52;;;;;;;12.85;7.10;;;;;;;20.01;71.54;100211.78;4970778;28;20040;-56
2022/08/16 03:26:19;;;;;;;16.45;7.22;;;;;;;19.95;71.62;100223.44;5094919;28;20051;-56
2022/08/16 03:28:46;;;;;;;13.10;6.93;;;;;;;19.98;71.70;100222.19;5095474;28;20044;-56
2022/08/16 03:31:13;;;;;;;13.93;6.75;;;;;;;19.95;71.56;100236.91;5094745;28;20055;-56
2022/08/16 03:33:40;;;;;;;12.88;7.05;;;;;;;19.98;71.11;100241.84;5095073;28;20493;-56
2022/08/16 03:36:07;;;;;;;16.50;7.00;;;;;;;19.95;71.32;100228.84;5095230;28;20048;-56
2022/08/16 03:38:38;;;;;;;16.08;7.18;;;;;;;19.93;71.69;100237.13;5095406;28;20056;-57
2022/08/16 03:41:08;;;;;;;14.48;6.80;;;;;;;19.89;71.69;100235.94;5095176;28;20051;-56
2022/08/16 03:43:35;;;;;;;16.15;6.95;;;;;;;19.91;71.60;100236.53;5095223;28;20070;-56
2022/08/16 03:46:02;;;;;;;20.38;7.03;;;;;;;19.84;71.29;100232.31;5076889;28;20036;-56
2022/08/16 03:48:36;;;;;;;14.45;7.10;;;;;;;19.79;71.76;100229.47;5094016;28;20075;-56
2022/08/16 03:51:10;;;;;;;17.48;7.53;;;;;;;19.79;71.71;100232.16;5095066;28;20052;-57
2022/08/16 03:53:43;;;;;;;12.80;7.13;;;;;;;19.73;71.68;100231.19;5094754;28;20051;-57
2022/08/16 03:56:10;;;;;;;17.40;6.80;;;;;;;19.74;71.57;100233.66;5094596;28;20054;-56
2022/08/16 03:58:37;;;;;;;12.10;6.57;;;;;;;19.83;71.22;100234.19;5094953;28;20048;-56
2022/08/16 04:01:05;;;;;;;15.48;7.03;;;;;;;19.80;71.48;100226.56;5094715;28;20074;-56
2022/08/16 04:03:33;;;;;;;16.55;6.90;;;;;;;19.70;71.52;100240.53;5094279;28;20109;-56
2022/08/16 04:06:00;;;;;;;13.57;6.88;;;;;;;19.68;72.12;100233.72;5094670;28;20501;-56
2022/08/16 04:08:29;;;;;;;11.50;6.60;;;;;;;19.72;71.81;100234.94;5094300;28;20048;-56
2022/08/16 04:10:58;;;;;;;15.82;6.32;;;;;;;19.72;71.77;100240.31;5094754;28;20135;-56
2022/08/16 04:13:27;;;;;;;12.35;6.65;;;;;;;19.68;71.80;100242.63;5094442;28;20131;-57
2022/08/16 04:15:58;;;;;;;13.00;6.50;;;;;;;19.67;72.16;100245.53;5094342;28;20067;-56
2022/08/16 04:18:25;;;;;;;17.77;6.85;;;;;;;19.64;72.26;100248.66;5093399;28;20051;-57
2022/08/16 04:20:55;;;;;;;14.02;6.63;;;;;;;19.61;72.01;100243.72;5094315;28;20060;-57
2022/08/16 04:23:26;;;;;;;14.98;6.85;;;;;;;19.59;72.01;100249.34;4966002;28;20051;-56
2022/08/16 04:25:55;;;;;;;16.20;6.93;;;;;;;19.65;72.12;100255.72;5093817;28;20497;-57
2022/08/16 04:28:22;;;;;;;12.07;6.60;;;;;;;19.63;72.13;100249.72;5094314;28;20059;-57
2022/08/16 04:30:49;;;;;;;14.35;6.90;;;;;;;19.52;72.38;100251.31;5094045;28;20393;-56
2022/08/16 04:33:15;;;;;;;17.02;6.80;;;;;;;19.55;72.28;100254.38;5093305;28;20044;-57
2022/08/16 04:35:42;;;;;;;11.93;6.32;;;;;;;19.52;72.41;100260.19;5094394;28;20066;-57
2022/08/16 04:38:09;;;;;;;15.48;7.15;;;;;;;19.55;72.18;100258.91;5109745;28;20036;-56
2022/08/16 04:40:43;;;;;;;12.02;6.80;;;;;;;19.53;72.46;100263.69;5093871;28;20090;-56
2022/08/16 04:43:10;;;;;;;12.10;6.50;;;;;;;19.54;72.36;100266.16;5093725;28;20036;-56
2022/08/16 04:45:37;;;;;;;13.85;6.88;;;;;;;19.56;72.07;100266.75;5092556;28;20048;-56
2022/08/16 04:48:09;;;;;;;16.52;7.03;;;;;;;19.57;72.00;100272.97;5093789;28;20074;-56
2022/08/16 04:50:47;;;;;;;13.00;7.05;;;;;;;19.43;72.51;100274.16;5092906;28;20040;-56
2022/08/16 04:53:17;;;;;;;17.48;6.85;;;;;;;19.38;72.94;100286.41;5093645;28;20044;-56
2022/08/16 04:55:45;;;;;;;14.18;7.20;;;;;;;19.42;72.79;100281.41;5093925;28;20091;-57
2022/08/16 04:58:11;;;;;;;16.65;7.15;;;;;;;19.49;72.82;100284.84;5092299;28;20039;-56
2022/08/16 05:00:38;;;;;;;15.82;7.30;;;;;;;19.63;72.04;100290.06;5093161;28;20040;-56
2022/08/16 05:03:12;;;;;;;15.75;7.47;;;;;;;19.53;72.28;100279.84;5093686;28;20478;-57
2022/08/16 05:05:44;;;;;;;12.88;7.07;;;;;;;19.50;72.23;100283.81;5093707;28;20047;-56
2022/08/16 05:08:14;;;;;;;14.27;6.95;;;;;;;19.55;72.00;100285.81;5092165;28;20489;-56
2022/08/16 05:10:44;;;;;;;17.40;7.45;;;;;;;19.53;72.29;100293.28;5093627;28;20098;-56
2022/08/16 05:13:10;;;;;;;16.40;7.03;;;;;;;19.67;71.86;100286.72;5093205;28;20542;-57
2022/08/16 05:15:38;;;;;;;12.73;6.40;;;;;;;19.66;71.70;100284.25;5093498;28;20048;-56
2022/08/16 05:18:05;;;;;;;17.95;6.55;;;;;;;19.68;71.41;100288.38;5093604;28;20119;-56
2022/08/16 05:20:39;;;;;;;13.68;6.40;;;;;;;19.67;71.84;100302.03;5093352;28;20056;-56
2022/08/16 05:23:06;;;;;;;15.48;7.10;;;;;;;19.64;71.58;100305.97;4969034;28;20638;-56
2022/08/16 05:25:35;;;;;;;13.77;7.07;;;;;;;19.71;71.64;100308.59;5092840;28;20050;-57
2022/08/16 05:28:02;;;;;;;14.35;7.00;;;;;;;19.78;71.13;100300.50;5093271;28;20130;-57
2022/08/16 05:30:29;;;;;;;15.70;7.30;;;;;;;19.63;71.82;100311.59;5092694;28;20063;-57
2022/08/16 05:32:56;;;;;;;17.95;7.28;;;;;;;19.64;71.45;100303.28;5093114;28;20577;-57
2022/08/16 05:35:23;;;;;;;13.85;7.32;;;;;;;19.64;71.37;100314.06;5093383;28;20130;-57
2022/08/16 05:38:05;;;;;;;15.00;6.85;;;;;;;19.69;71.35;100303.44;5093230;28;20048;-56
2022/08/16 05:40:33;;;;;;;14.57;7.03;;;;;;;19.71;71.38;100295.16;5092734;28;20044;-56
2022/08/16 05:43:00;;;;;;;14.63;6.95;;;;;;;19.78;71.42;100297.81;5092614;28;20067;-57
2022/08/16 05:45:27;;;;;;;16.75;7.30;;;;;;;19.81;71.10;100292.78;5074487;28;20041;-57
2022/08/16 05:47:58;;;;;;;19.92;7.97;;;;;;;19.86;70.87;100297.50;5092323;28;20481;-56
2022/08/16 05:50:31;;;;;;;14.80;7.18;;;;;;;19.82;71.00;100294.41;5092447;28;20055;-56
2022/08/16 05:52:57;;;;;;;13.93;7.10;;;;;;;19.91;70.77;100297.63;5092456;28;20114;-57
2022/08/16 05:55:24;;;;;;;16.25;7.63;;;;;;;19.83;71.12;100298.78;5092454;28;20089;-56
2022/08/16 05:57:51;;;;;;;18.33;8.18;;;;;;;19.88;71.06;100298.06;5090940;28;20393;-57
2022/08/16 06:00:18;;;;;;;14.80;7.05;;;;;;;20.00;71.49;100307.03;5092617;28;20059;-57
2022/08/16 06:02:46;;;;;;;15.73;7.72;;;;;;;20.00;71.01;100306.22;5092712;28;20154;-56
2022/08/16 06:05:33;;;;;;;15.50;7.53;;;;;;;20.13;70.45;100311.44;5091911;28;20115;-57
2022/08/16 06:08:00;;;;;;;16.67;7.85;;;;;;;20.19;70.66;100320.47;5092382;28;20036;-57
2022/08/16 06:10:31;;;;;;;15.68;7.32;;;;;;;20.30;69.74;100319.69;5092909;28;20131;-57
2022/08/16 06:12:58;;;;;;;19.38;8.02;;;;;;;20.29;69.33;100329.66;5095253;28;20044;-56
2022/08/16 06:15:25;;;;;;;14.90;7.13;;;;;;;20.28;69.92;100327.16;5096500;28;20040;-57
2022/08/16 06:17:52;;;;;;;22.13;8.23;;;;;;;20.30;70.02;100333.16;5096563;28;20044;-57
2022/08/16 06:20:25;;;;;;;19.50;7.95;;;;;;;20.32;69.70;100326.50;5096549;28;20044;-57
2022/08/16 06:22:57;;;;;;;14.57;7.78;;;;;;;20.38;69.65;100316.69;4972109;28;20101;-57
2022/08/16 06:25:28;;;;;;;20.50;8.23;;;;;;;20.40;69.52;100316.47;5096131;28;20106;-57
2022/08/16 06:27:56;;;;;;;26.15;9.45;;;;;;;20.45;68.95;100319.28;5096115;28;20043;-57
2022/08/16 06:30:24;;;;;;;16.30;8.00;;;;;;;20.40;69.19;100316.47;5095899;28;20074;-57
2022/08/16 06:32:51;;;;;;;15.95;7.70;;;;;;;20.45;69.44;100324.69;5094630;28;20098;-58
2022/08/16 06:35:18;;;;;;;18.25;8.45;;;;;;;20.51;69.47;100326.44;5096204;28;20558;-56
2022/08/16 06:37:48;;;;;;;19.30;8.75;;;;;;;20.52;68.86;100325.41;5096032;28;20050;-57
2022/08/16 06:40:14;;;;;;;20.70;8.57;;;;;;;20.52;69.52;100323.53;5096361;28;20094;-58
2022/08/16 06:42:47;;;;;;;23.05;8.57;;;;;;;20.60;68.93;100316.16;5096207;28;20405;-56
2022/08/16 06:45:29;;;;;;;18.15;8.20;;;;;;;20.62;68.70;100322.97;5096402;28;20052;-57
2022/08/16 06:48:04;;;;;;;18.10;8.57;;;;;;;20.67;68.83;100333.91;5095918;28;20054;-57
2022/08/16 06:50:32;;;;;;;15.80;8.50;;;;;;;20.74;68.26;100335.66;5095904;28;20066;-58
2022/08/16 06:53:04;;;;;;;20.10;8.85;;;;;;;20.79;67.94;100338.50;5095900;28;20489;-57
2022/08/16 06:55:33;;;;;;;18.50;8.48;;;;;;;20.88;68.44;100340.63;5096170;28;20044;-56
2022/08/16 06:58:04;;;;;;;17.25;8.38;;;;;;;20.98;67.62;100341.94;5096034;28;20123;-57
2022/08/16 07:00:31;;;;;;;19.27;7.90;;;;;;;21.01;67.53;100339.59;5095660;28;20054;-57
2022/08/16 07:03:05;;;;;;;19.98;7.68;;;;;;;21.02;67.67;100343.91;5095358;28;20489;-57
2022/08/16 07:05:32;;;;;;;19.88;8.05;;;;;;;21.07;67.98;100348.63;5095259;28;20048;-57
2022/08/16 07:08:09;;;;;;;17.65;7.60;;;;;;;21.16;66.45;100349.09;5090981;28;20578;-56
2022/08/16 07:10:38;;;;;;;16.47;7.00;;;;;;;21.19;65.81;100346.75;5092725;28;20052;-57
2022/08/16 07:13:05;;;;;;;16.85;6.72;;;;;;;21.28;65.64;100341.81;5095615;28;20087;-57
2022/08/16 07:15:33;;;;;;;15.35;7.35;;;;;;;21.43;64.28;100347.56;5095491;28;20485;-57
2022/08/16 07:18:00;;;;;;;14.98;7.68;;;;;;;21.53;64.39;100348.88;5095684;28;20040;-57
2022/08/16 07:20:27;;;;;;;15.23;7.32;;;;;;;21.55;64.45;100352.16;5095422;28;20068;-57
2022/08/16 07:22:56;;;;;;;16.05;7.00;;;;;;;21.52;64.43;100353.47;4969508;28;20990;-56
2022/08/16 07:25:27;;;;;;;13.15;6.78;;;;;;;21.48;65.11;100357.69;5095137;28;20056;-56
2022/08/16 07:27:54;;;;;;;12.80;6.93;;;;;;;21.36;64.58;100357.66;5095427;28;20461;-58
2022/08/16 07:30:26;;;;;;;18.52;7.10;;;;;;;21.53;64.50;100359.69;5095574;28;20056;-57
2022/08/16 07:32:54;;;;;;;15.18;6.95;;;;;;;21.51;64.38;100354.53;5111070;28;20040;-57
2022/08/16 07:35:22;;;;;;;14.52;6.60;;;;;;;21.58;64.12;100349.00;5094261;28;20397;-56
2022/08/16 07:37:49;;;;;;;18.55;7.70;;;;;;;21.69;63.53;100352.75;5095194;28;20039;-56
2022/08/16 07:40:24;;;;;;;19.27;6.93;;;;;;;21.68;63.72;100351.91;5095051;28;20508;-57
2022/08/16 07:43:04;;;;;;;16.67;7.38;;;;;;;21.66;64.33;100356.72;5095088;28;20561;-56
2022/08/16 07:45:32;;;;;;;14.43;6.72;;;;;;;21.65;64.18;100360.50;5094816;28;20394;-57
2022/08/16 07:47:59;;;;;;;22.20;7.03;;;;;;;21.83;64.73;100371.16;5094940;28;20055;-57
2022/08/16 07:50:26;;;;;;;14.60;7.57;;;;;;;22.08;63.12;100369.22;5094835;28;20400;-57
2022/08/16 07:52:52;;;;;;;18.05;7.93;;;;;;;22.13;62.54;100366.63;5094904;28;20040;-57
2022/08/16 07:55:19;;;;;;;16.52;7.30;;;;;;;22.30;61.82;100375.59;5094967;28;20109;-56
2022/08/16 07:57:47;;;;;;;14.05;7.45;;;;;;;22.18;62.42;100375.63;5094543;28;20388;-57
2022/08/16 08:00:15;;;;;;;14.77;7.95;;;;;;;22.16;62.26;100376.94;5094553;28;20036;-57
2022/08/16 08:02:46;;;;;;;14.20;7.60;;;;;;;22.14;62.47;100384.44;5093519;28;20048;-57
2022/08/16 08:05:19;;;;;;;20.80;8.45;;;;;;;22.27;61.93;100384.22;5094087;28;20052;-57
2022/08/16 08:07:46;;;;;;;16.38;8.30;;;;;;;22.46;61.04;100386.72;5094591;28;20036;-58
2022/08/16 08:10:12;;;;;;;18.35;9.00;;;;;;;22.54;60.85;100389.03;5093244;28;20451;-56
2022/08/16 08:12:43;;;;;;;21.67;8.68;;;;;;;22.55;60.69;100388.78;5094633;28;20117;-57
2022/08/16 08:15:11;;;;;;;15.93;7.60;;;;;;;22.55;60.77;100399.59;5094345;28;20400;-58
2022/08/16 08:17:40;;;;;;;18.38;8.98;;;;;;;22.55;60.88;100386.09;5094380;28;20097;-56
2022/08/16 08:20:11;;;;;;;13.23;7.72;;;;;;;22.64;61.12;100388.41;5094742;28;20048;-56
2022/08/16 08:22:38;;;;;;;24.35;8.57;;;;;;;22.84;59.79;100382.56;4967732;28;21025;-56
2022/08/16 08:25:08;;;;;;;18.08;7.57;;;;;;;22.88;60.15;100397.22;5094286;28;20060;-56
2022/08/16 08:27:35;;;;;;;16.58;8.10;;;;;;;22.98;59.91;100392.81;5094201;28;20040;-56
2022/08/16 08:30:04;;;;;;;20.08;8.65;;;;;;;23.04;59.03;100390.19;5093998;28;20063;-57
2022/08/16 08:32:33;;;;;;;19.05;8.70;;;;;;;23.21;59.34;100403.75;5093933;28;20058;-55
2022/08/16 08:35:04;;;;;;;18.70;8.35;;;;;;;23.10;59.40;100406.28;5093563;28;20032;-57
2022/08/16 08:37:35;;;;;;;18.93;8.87;;;;;;;23.33;59.71;100402.59;5094204;28;20485;-58
2022/08/16 08:40:09;;;;;;;16.85;7.65;;;;;;;23.38;59.09;100410.78;5094164;28;20569;-57
2022/08/16 08:42:36;;;;;;;17.15;8.02;;;;;;;23.55;58.35;100402.63;5093938;28;20114;-58
2022/08/16 08:45:04;;;;;;;20.95;7.50;;;;;;;23.71;58.73;100409.09;5094047;28;20083;-57
2022/08/16 08:47:32;;;;;;;19.02;8.10;;;;;;;23.82;57.70;100409.28;5093622;28;20040;-58
2022/08/16 08:49:59;;;;;;;18.05;7.82;;;;;;;23.89;56.72;100409.91;5092505;28;20044;-56
2022/08/16 08:52:28;;;;;;;17.30;9.27;;;;;;;23.66;57.50;100419.03;5093854;28;20052;-57
2022/08/16 08:54:55;;;;;;;15.45;8.35;;;;;;;23.90;57.09;100409.69;5093746;28;20051;-55
2022/08/16 08:57:22;;;;;;;18.17;7.75;;;;;;;24.04;56.56;100412.81;5093642;28;20557;-55
2022/08/16 08:59:58;;;;;;;20.90;8.82;;;;;;;24.18;55.65;100409.75;5093831;28;20048;-56
2022/08/16 09:02:25;;;;;;;16.23;8.90;;;;;;;24.20;55.15;100408.41;5093265;28;20553;-56
2022/08/16 09:04:56;;;;;;;23.08;8.35;;;;;;;24.29;55.29;100404.19;5092766;28;20513;-56
2022/08/16 09:07:24;;;;;;;16.20;8.52;;;;;;;24.29;55.34;100409.59;5093683;28;20123;-56
2022/08/16 09:09:54;;;;;;;18.55;8.82;;;;;;;24.40;55.07;100424.09;5093322;28;20052;-55
2022/08/16 09:12:21;;;;;;;19.17;7.65;;;;;;;24.58;55.44;100416.75;5093604;28;20063;-56
2022/08/16 09:14:59;;;;;;;22.35;8.32;;;;;;;24.76;54.36;100410.97;5093270;28;20415;-55
2022/08/16 09:17:28;;;;;;;16.08;7.82;;;;;;;24.90;53.64;100414.88;5093384;28;20040;-56
2022/08/16 09:20:14;;;;;;;19.20;7.97;;;;;;;25.00;53.07;100411.44;5093461;28;20489;-56
2022/08/16 09:22:41;;;;;;;16.15;8.05;;;;;;;25.08;52.73;100410.13;5024056;28;20197;-56
2022/08/16 09:25:10;;;;;;;15.32;7.55;;;;;;;25.33;52.54;100415.00;5043627;28;20127;-55
2022/08/16 09:27:37;;;;;;;16.98;7.57;;;;;;;25.61;51.84;100423.84;5092145;28;20085;-56
2022/08/16 09:30:04;;;;;;;19.17;8.05;;;;;;;25.75;50.30;100418.78;5091731;28;20501;-56
2022/08/16 09:32:31;;;;;;;16.83;7.82;;;;;;;25.76;50.17;100423.13;5093099;28;20078;-55
2022/08/16 09:35:00;;;;;;;18.30;7.80;;;;;;;25.78;50.56;100423.72;5093038;28;20536;-56
2022/08/16 09:37:29;;;;;;;20.63;8.10;;;;;;;25.75;50.47;100426.94;5093074;28;20481;-55
2022/08/16 09:39:57;;;;;;;19.33;7.70;;;;;;;26.11;50.91;100425.25;5093229;28;20051;-55
2022/08/16 09:42:25;;;;;;;17.75;7.82;;;;;;;26.34;49.60;100423.16;5093175;28;20044;-55
2022/08/16 09:44:51;;;;;;;18.90;8.02;;;;;;;26.68;48.35;100423.53;5093183;28;20059;-56
2022/08/16 09:47:18;;;;;;;19.85;7.85;;;;;;;26.86;47.12;100415.97;5093214;28;20032;-56
2022/08/16 09:49:45;;;;;;;20.27;7.78;;;;;;;27.13;46.72;100419.22;5097220;28;20555;-57
2022/08/16 09:52:12;;;;;;;16.92;7.20;;;;;;;27.49;46.76;100418.44;5097191;28;20505;-56
2022/08/16 09:54:39;;;;;;;15.27;7.30;;;;;;;27.83;45.19;100418.59;5097327;28;20047;-55
2022/08/16 09:57:06;;;;;;;19.83;6.70;;;;;;;28.18;44.14;100410.59;5097050;28;20076;-56
2022/08/16 09:59:33;;;;;;;19.42;7.30;;;;;;;28.45;43.63;100413.75;5097206;28;20040;-55
2022/08/16 10:02:00;;;;;;;21.10;8.10;;;;;;;28.94;42.10;100412.06;5096557;28;20067;-55
2022/08/16 10:04:27;;;;;;;20.33;7.22;;;;;;;29.07;41.86;100416.06;5096381;28;20058;-55
2022/08/16 10:06:57;;;;;;;16.98;6.60;;;;;;;29.12;41.58;100412.47;5095500;28;20094;-55
2022/08/16 10:09:29;;;;;;;18.92;6.78;;;;;;;29.36;40.83;100407.09;5097014;28;20153;-56
2022/08/16 10:14:42;;;;;;;15.43;6.80;;;;;;;29.32;40.09;100409.59;5096809;28;20123;-55
2022/08/16 10:17:09;;;;;;;18.20;6.32;;;;;;;29.58;39.71;100401.97;5096872;28;20069;-57
2022/08/16 10:19:36;;;;;;;21.33;6.40;;;;;;;29.89;38.81;100406.28;5096308;28;20397;-56
2022/08/16 10:22:02;;;;;;;14.38;6.90;;;;;;;29.90;39.44;100405.19;5096650;28;20082;-55
2022/08/16 10:24:30;;;;;;;20.02;6.72;;;;;;;30.09;38.88;100408.78;4968009;28;20135;-54
2022/08/16 10:26:56;;;;;;;14.05;7.53;;;;;;;30.11;38.02;100412.03;5096480;28;20044;-55
2022/08/16 10:29:23;;;;;;;24.00;6.63;;;;;;;29.83;38.33;100402.81;5095504;28;20039;-55
2022/08/16 10:31:50;;;;;;;15.23;6.32;;;;;;;29.86;39.13;100404.97;5095184;28;20444;-55
2022/08/16 10:34:17;;;;;;;14.73;6.75;;;;;;;29.74;38.59;100412.72;5095888;28;20121;-56
2022/08/16 10:36:44;;;;;;;23.27;6.57;;;;;;;29.63;38.45;100403.81;5096109;28;20044;-56
2022/08/16 10:39:11;;;;;;;17.48;6.60;;;;;;;29.51;38.13;100403.41;5096508;28;20047;-55
2022/08/16 10:41:38;;;;;;;20.25;6.28;;;;;;;29.47;37.91;100406.72;5096206;28;20056;-56
2022/08/16 10:44:05;;;;;;;16.88;5.72;;;;;;;29.69;38.18;100405.41;5096246;28;20048;-56
2022/08/16 10:46:34;;;;;;;15.20;6.28;;;;;;;29.44;38.33;100412.75;5096451;28;20097;-55
2022/08/16 10:49:01;;;;;;;13.43;6.80;;;;;;;29.21;38.69;100405.34;5094407;28;20056;-55
2022/08/16 10:51:27;;;;;;;16.95;6.40;;;;;;;29.46;38.54;100416.00;5096123;28;20040;-56
2022/08/16 10:53:54;;;;;;;18.98;6.55;;;;;;;29.54;37.13;100411.03;5096099;28;20048;-55
2022/08/16 10:56:23;;;;;;;14.35;6.07;;;;;;;29.43;37.60;100402.94;5094698;28;20048;-55
2022/08/16 10:58:50;;;;;;;13.32;5.97;;;;;;;29.35;38.64;100409.03;5095558;28;20036;-55
2022/08/16 11:01:17;;;;;;;18.52;6.40;;;;;;;29.64;37.23;100400.81;5095815;28;20101;-55
2022/08/16 11:03:52;;;;;;;15.80;5.90;;;;;;;29.69;37.35;100413.59;5095288;28;20048;-56
2022/08/16 11:06:19;;;;;;;20.65;6.00;;;;;;;29.66;37.42;100398.59;5095855;28;20393;-55
2022/08/16 11:08:46;;;;;;;16.83;5.97;;;;;;;29.44;37.34;100417.41;5095159;28;20115;-55
2022/08/16 11:11:14;;;;;;;13.23;6.40;;;;;;;29.54;37.88;100411.81;5095489;28;20067;-55
2022/08/16 11:13:47;;;;;;;;;;;;;;;29.73;37.46;100413.84;5096099;28;20059;-55
2022/08/16 11:16:29;;;;;;;13.80;6.30;;;;;;;29.91;37.24;100409.53;5095527;28;20285;-56
2022/08/16 11:19:16;;;;;;;18.92;6.18;;;;;;;29.92;36.90;100416.66;5094784;28;20071;-56
2022/08/16 11:21:43;;;;;;;13.68;5.80;;;;;;;30.17;36.71;100410.88;5095459;28;20048;-55
2022/08/16 11:24:30;;;;;;;13.30;5.30;;;;;;;30.47;35.06;100413.50;4977321;28;20040;-55
2022/08/16 11:26:56;;;;;;;16.48;6.13;;;;;;;30.38;34.60;100422.38;5095240;28;20091;-56
2022/08/16 11:29:43;;;;;;;12.70;5.85;;;;;;;30.12;35.28;100421.06;5094421;28;20123;-55
2022/08/16 11:32:10;;;;;;;15.32;5.55;;;;;;;30.15;35.54;100415.81;5094666;28;20048;-56